createdAt,value
2017-12-02T00:00:33.378Z,61.50
2017-12-02T00:01:36.604Z,67.00
2017-12-02T00:02:39.514Z,72.50
2017-12-02T00:03:42.530Z,79.00
2017-12-02T00:04:45.457Z,70.00
2017-12-02T00:05:48.419Z,88.00
2017-12-02T00:06:51.391Z,65.00
2017-12-02T00:07:54.922Z,57.00
2017-12-02T00:08:57.935Z,68.50
2017-12-02T00:10:00.855Z,53.00
2017-12-02T00:11:03.776Z,46.50
2017-12-02T00:12:06.742Z,64.50
2017-12-02T00:13:09.662Z,66.00
2017-12-02T00:14:12.830Z,55.50
2017-12-02T00:15:15.730Z,67.00
2017-12-02T00:16:18.646Z,67.50
2017-12-02T00:17:21.581Z,79.00
2017-12-02T00:18:24.490Z,60.50
2017-12-02T00:19:27.384Z,51.50
2017-12-02T00:20:30.622Z,45.50
2017-12-02T00:21:33.512Z,46.50
2017-12-02T00:22:36.411Z,40.00
2017-12-02T00:23:39.303Z,43.50
2017-12-02T00:24:42.195Z,40.00
2017-12-02T00:25:45.109Z,45.00
2017-12-02T00:26:48.467Z,46.00
2017-12-02T00:27:51.356Z,53.00
2017-12-02T00:28:54.239Z,48.50
2017-12-02T00:29:57.171Z,49.50
2017-12-02T00:31:00.071Z,47.00
2017-12-02T00:32:02.999Z,48.00
2017-12-02T00:33:06.209Z,45.00
2017-12-02T00:34:09.115Z,41.50
2017-12-02T00:35:12.068Z,44.50
2017-12-02T00:36:14.999Z,47.50
2017-12-02T00:37:17.943Z,48.00
2017-12-02T00:38:20.865Z,45.00
2017-12-02T00:39:24.073Z,53.00
2017-12-02T00:40:26.988Z,48.50
2017-12-02T00:41:29.917Z,49.00
2017-12-02T00:42:32.920Z,41.00
2017-12-02T00:43:35.817Z,44.00
2017-12-02T00:44:38.767Z,39.00
2017-12-02T00:45:41.985Z,49.00
2017-12-02T00:46:44.879Z,58.50
2017-12-02T00:47:47.872Z,46.00
2017-12-02T00:48:50.772Z,51.00
2017-12-02T00:49:53.720Z,51.00
2017-12-02T00:50:56.692Z,48.00
2017-12-02T00:51:59.899Z,72.50
2017-12-02T00:53:02.946Z,76.00
2017-12-02T00:54:05.899Z,70.00
2017-12-02T00:55:08.830Z,81.50
2017-12-02T00:56:11.778Z,62.00
2017-12-02T00:57:14.682Z,79.00
2017-12-02T00:58:17.921Z,94.50
2017-12-02T00:59:20.807Z,87.50
2017-12-02T01:00:23.664Z,91.00
2017-12-02T01:01:26.672Z,95.50
2017-12-02T01:02:29.560Z,85.50
2017-12-02T01:03:32.550Z,83.00
2017-12-02T01:04:35.616Z,64.00
2017-12-02T01:05:38.703Z,69.00
2017-12-02T01:06:41.626Z,66.00
2017-12-02T01:07:44.580Z,65.00
2017-12-02T01:08:47.492Z,69.00
2017-12-02T01:09:50.712Z,61.50
2017-12-02T01:10:53.782Z,66.50
2017-12-02T01:11:56.809Z,58.50
2017-12-02T01:12:59.726Z,57.00
2017-12-02T01:14:02.767Z,46.50
2017-12-02T01:15:05.695Z,57.50
2017-12-02T01:16:09.071Z,68.00
2017-12-02T01:17:12.136Z,70.00
2017-12-02T01:18:15.111Z,72.00
2017-12-02T01:19:17.977Z,80.00
2017-12-02T01:20:20.915Z,82.50
2017-12-02T01:21:23.999Z,75.00
2017-12-02T01:22:26.892Z,70.50
2017-12-02T01:23:30.595Z,71.50
2017-12-02T01:24:33.682Z,58.00
2017-12-02T01:25:36.772Z,66.00
2017-12-02T01:26:39.725Z,81.00
2017-12-02T01:27:42.980Z,83.50
2017-12-02T01:28:45.897Z,92.00
2017-12-02T01:29:48.800Z,75.00
2017-12-02T01:30:51.780Z,87.00
2017-12-02T01:31:54.807Z,85.50
2017-12-02T01:32:57.704Z,73.50
2017-12-02T01:34:00.884Z,59.50
2017-12-02T01:35:03.809Z,62.00
2017-12-02T01:36:06.740Z,56.00
2017-12-02T01:37:09.671Z,60.50
2017-12-02T01:38:12.576Z,60.50
2017-12-02T01:39:15.524Z,51.50
2017-12-02T01:40:18.749Z,58.50
2017-12-02T01:41:21.665Z,51.50
2017-12-02T01:42:24.594Z,47.50
2017-12-02T01:43:27.521Z,50.00
2017-12-02T01:44:30.874Z,61.50
2017-12-02T01:45:33.752Z,70.00
2017-12-02T01:46:36.692Z,64.50
2017-12-02T01:47:40.247Z,43.50
2017-12-02T01:48:43.151Z,55.00
2017-12-02T01:49:46.104Z,59.50
2017-12-02T01:50:49.016Z,50.00
2017-12-02T01:51:51.928Z,57.50
2017-12-02T01:52:54.848Z,56.00
2017-12-02T01:53:57.777Z,65.50
2017-12-02T01:55:00.726Z,46.00
2017-12-02T01:56:03.624Z,44.50
2017-12-02T01:57:07.024Z,63.00
2017-12-02T01:58:09.971Z,48.50
2017-12-02T01:59:12.869Z,55.50
2017-12-02T02:00:15.755Z,53.00
2017-12-02T02:01:18.771Z,58.00
2017-12-02T02:02:21.744Z,58.50
2017-12-02T02:03:25.049Z,70.00
2017-12-02T02:04:28.047Z,88.00
2017-12-02T02:05:30.958Z,88.00
2017-12-02T02:06:34.138Z,62.00
2017-12-02T02:07:37.126Z,88.00
2017-12-02T02:08:40.029Z,67.50
2017-12-02T02:09:43.371Z,62.50
2017-12-02T02:10:46.302Z,60.00
2017-12-02T02:11:49.224Z,68.50
2017-12-02T02:12:52.124Z,78.00
2017-12-02T02:13:55.064Z,61.00
2017-12-02T02:14:57.971Z,63.00
2017-12-02T02:16:01.203Z,60.50
2017-12-02T02:17:05.021Z,29.00
2017-12-02T02:18:08.463Z,44.00
2017-12-02T02:19:11.275Z,66.00
2017-12-02T02:20:14.102Z,45.00
2017-12-02T02:21:16.974Z,61.50
2017-12-02T02:22:20.320Z,59.00
2017-12-02T02:23:23.269Z,61.00
2017-12-02T02:24:26.304Z,50.00
2017-12-02T02:25:29.313Z,60.00
2017-12-02T02:26:32.253Z,56.50
2017-12-02T02:27:35.224Z,52.50
2017-12-02T02:28:38.564Z,58.00
2017-12-02T02:29:41.553Z,59.00
2017-12-02T02:30:44.477Z,60.50
2017-12-02T02:31:47.407Z,60.50
2017-12-02T02:32:50.349Z,53.50
2017-12-02T02:33:53.346Z,53.00
2017-12-02T02:34:56.673Z,55.00
2017-12-02T02:35:59.634Z,65.00
2017-12-02T02:37:02.605Z,43.50
2017-12-02T02:38:05.549Z,62.00
2017-12-02T02:39:08.469Z,56.00
2017-12-02T02:40:11.399Z,54.50
2017-12-02T02:41:14.677Z,52.00
2017-12-02T02:42:17.620Z,59.00
2017-12-02T02:43:20.513Z,60.00
2017-12-02T02:44:23.488Z,60.00
2017-12-02T02:45:26.384Z,58.00
2017-12-02T02:46:29.321Z,52.00
2017-12-02T02:47:32.740Z,60.50
2017-12-02T02:48:35.653Z,48.50
2017-12-02T02:49:38.598Z,60.00
2017-12-02T02:50:41.622Z,55.50
2017-12-02T02:51:44.652Z,55.50
2017-12-02T02:52:47.489Z,56.00
2017-12-02T02:53:50.790Z,52.50
2017-12-02T02:54:53.722Z,59.00
2017-12-02T02:55:56.627Z,40.00
2017-12-02T02:56:59.480Z,55.50
2017-12-02T02:58:02.460Z,57.00
2017-12-02T02:59:05.376Z,50.00
2017-12-02T03:00:08.301Z,51.50
2017-12-02T03:01:11.841Z,54.00
2017-12-02T03:02:14.738Z,55.50
2017-12-02T03:03:17.665Z,62.00
2017-12-02T03:04:20.553Z,76.00
2017-12-02T03:05:23.535Z,60.50
2017-12-02T03:06:26.443Z,55.50
2017-12-02T03:07:29.391Z,54.00
2017-12-02T03:08:32.392Z,51.00
2017-12-02T03:09:35.371Z,55.50
2017-12-02T03:10:38.318Z,64.50
2017-12-02T03:11:41.664Z,65.50
2017-12-02T03:12:44.576Z,66.00
2017-12-02T03:13:47.513Z,63.50
2017-12-02T03:14:50.408Z,67.00
2017-12-02T03:15:53.388Z,59.50
2017-12-02T03:16:56.316Z,56.00
2017-12-02T03:17:59.743Z,69.00
2017-12-02T03:19:02.643Z,58.00
2017-12-02T03:20:05.579Z,78.00
2017-12-02T03:21:08.395Z,64.50
2017-12-02T03:22:11.266Z,60.00
2017-12-02T03:23:14.103Z,53.50
2017-12-02T03:24:17.391Z,63.00
2017-12-02T03:25:20.343Z,74.00
2017-12-02T03:26:23.301Z,59.50
2017-12-02T03:27:26.292Z,78.00
2017-12-02T03:28:29.210Z,75.00
2017-12-02T03:29:32.057Z,66.50
2017-12-02T03:30:35.347Z,63.50
2017-12-02T03:31:38.179Z,75.50
2017-12-02T03:32:40.999Z,73.50
2017-12-02T03:33:43.830Z,70.50
2017-12-02T03:34:47.123Z,75.00
2017-12-02T03:35:49.986Z,61.00
2017-12-02T03:36:53.216Z,68.00
2017-12-02T03:37:56.047Z,61.00
2017-12-02T03:38:58.957Z,65.50
2017-12-02T03:40:01.890Z,68.00
2017-12-02T03:41:04.866Z,57.00
2017-12-02T03:42:07.784Z,60.00
2017-12-02T03:43:11.268Z,69.00
2017-12-02T03:44:14.248Z,61.00
2017-12-02T03:45:17.128Z,64.50
2017-12-02T03:46:19.969Z,85.00
2017-12-02T03:47:22.808Z,81.50
2017-12-02T03:48:25.693Z,78.50
2017-12-02T03:49:29.055Z,67.50
2017-12-02T03:50:31.953Z,60.50
2017-12-02T03:51:34.884Z,75.50
2017-12-02T03:52:37.894Z,66.50
2017-12-02T03:53:40.681Z,66.00
2017-12-02T03:54:43.497Z,66.00
2017-12-02T03:55:47.045Z,63.50
2017-12-02T03:56:49.951Z,45.00
2017-12-02T03:57:52.947Z,53.00
2017-12-02T03:58:56.018Z,54.50
2017-12-02T03:59:59.113Z,52.50
2017-12-02T04:01:02.121Z,48.00
2017-12-02T04:02:05.517Z,49.50
2017-12-02T04:03:09.491Z,55.50
2017-12-02T04:04:12.559Z,52.00
2017-12-02T04:05:15.557Z,43.50
2017-12-02T04:06:18.583Z,51.50
2017-12-02T04:07:21.502Z,54.50
2017-12-02T04:08:24.870Z,57.00
2017-12-02T04:09:27.830Z,55.00
2017-12-02T04:10:30.758Z,52.00
2017-12-02T04:11:33.628Z,66.50
2017-12-02T04:12:36.578Z,74.50
2017-12-02T04:13:39.420Z,74.00
2017-12-02T04:14:42.621Z,69.00
2017-12-02T04:15:45.562Z,56.00
2017-12-02T04:16:48.553Z,47.50
2017-12-02T04:17:51.563Z,62.00
2017-12-02T04:18:54.533Z,51.50
2017-12-02T04:19:57.472Z,69.00
2017-12-02T04:21:00.900Z,78.00
2017-12-02T04:22:03.821Z,68.00
2017-12-02T04:23:06.781Z,69.00
2017-12-02T04:24:09.700Z,46.50
2017-12-02T04:25:12.630Z,66.00
2017-12-02T04:26:15.683Z,65.00
2017-12-02T04:27:18.913Z,62.50
2017-12-02T04:28:21.767Z,82.00
2017-12-02T04:29:24.601Z,69.00
2017-12-02T04:30:27.503Z,69.00
2017-12-02T04:31:30.434Z,62.50
2017-12-02T04:32:33.267Z,48.00
2017-12-02T04:33:36.545Z,44.00
2017-12-02T04:34:39.368Z,62.00
2017-12-02T04:35:42.212Z,58.00
2017-12-02T04:36:45.050Z,52.00
2017-12-02T04:37:47.901Z,60.00
2017-12-02T04:38:50.737Z,56.50
2017-12-02T04:39:53.987Z,47.50
2017-12-02T04:40:56.834Z,52.50
2017-12-02T04:41:59.683Z,49.50
2017-12-02T04:43:02.551Z,59.00
2017-12-02T04:44:05.384Z,61.00
2017-12-02T04:45:08.246Z,67.50
2017-12-02T04:46:11.433Z,58.00
2017-12-02T04:47:14.251Z,42.50
2017-12-02T04:48:17.094Z,42.50
2017-12-02T04:49:19.934Z,54.00
2017-12-02T04:50:22.852Z,44.00
2017-12-02T04:51:25.780Z,44.00
2017-12-02T04:52:29.191Z,43.00
2017-12-02T04:53:32.062Z,60.00
2017-12-02T04:54:35.003Z,47.50
2017-12-02T04:55:37.947Z,60.00
2017-12-02T04:56:40.964Z,59.50
2017-12-02T04:57:43.884Z,63.50
2017-12-02T04:58:47.213Z,60.00
2017-12-02T04:59:50.075Z,52.50
2017-12-02T05:00:53.028Z,53.00
2017-12-02T05:01:55.965Z,50.00
2017-12-02T05:02:59.012Z,70.00
2017-12-02T05:04:01.993Z,65.50
2017-12-02T05:05:05.323Z,70.00
2017-12-02T05:06:08.244Z,76.50
2017-12-02T05:07:11.181Z,64.00
2017-12-02T05:08:14.145Z,78.00
2017-12-02T05:09:17.091Z,71.50
2017-12-02T05:10:20.044Z,83.50
2017-12-02T05:11:23.329Z,75.00
2017-12-02T05:12:26.232Z,78.50
2017-12-02T05:13:29.152Z,66.00
2017-12-02T05:14:32.090Z,53.00
2017-12-02T05:15:35.048Z,58.00
2017-12-02T05:16:37.985Z,59.00
2017-12-02T05:17:41.372Z,58.50
2017-12-02T05:18:44.300Z,38.50
2017-12-02T05:19:47.232Z,39.50
2017-12-02T05:20:50.142Z,43.50
2017-12-02T05:21:53.085Z,44.00
2017-12-02T05:22:56.060Z,53.00
2017-12-02T05:23:59.477Z,51.50
2017-12-02T05:25:02.465Z,46.00
2017-12-02T05:26:05.384Z,34.50
2017-12-02T05:27:08.328Z,49.50
2017-12-02T05:28:11.275Z,51.00
2017-12-02T05:29:14.233Z,53.50
2017-12-02T05:30:17.573Z,43.50
2017-12-02T05:31:20.523Z,44.00
2017-12-02T05:32:23.430Z,44.50
2017-12-02T05:33:26.354Z,52.00
2017-12-02T05:34:29.311Z,54.00
2017-12-02T05:35:32.301Z,54.00
2017-12-02T05:36:35.641Z,42.50
2017-12-02T05:37:38.552Z,40.50
2017-12-02T05:38:41.485Z,49.50
2017-12-02T05:39:44.466Z,52.50
2017-12-02T05:40:47.396Z,59.50
2017-12-02T05:41:50.267Z,54.50
2017-12-02T05:42:53.578Z,47.00
2017-12-02T05:43:56.451Z,54.00
2017-12-02T05:44:59.326Z,60.50
2017-12-02T05:46:02.208Z,61.00
2017-12-02T05:47:05.089Z,46.50
2017-12-02T05:48:07.946Z,51.50
2017-12-02T05:49:11.225Z,47.50
2017-12-02T05:50:14.078Z,43.50
2017-12-02T05:51:16.998Z,47.00
2017-12-02T05:52:19.878Z,42.50
2017-12-02T05:53:22.721Z,41.50
2017-12-02T05:54:25.549Z,50.00
2017-12-02T05:55:28.951Z,44.50
2017-12-02T05:56:31.885Z,35.00
2017-12-02T05:57:34.826Z,45.00
2017-12-02T05:58:37.779Z,43.50
2017-12-02T05:59:40.723Z,54.50
2017-12-02T06:00:43.637Z,58.00
2017-12-02T06:01:46.976Z,61.00
2017-12-02T06:02:49.940Z,46.50
2017-12-02T06:03:53.066Z,52.50
2017-12-02T06:04:56.030Z,60.00
2017-12-02T06:05:59.074Z,65.50
2017-12-02T06:07:02.038Z,45.00
2017-12-02T06:08:05.426Z,46.50
2017-12-02T06:09:08.394Z,54.00
2017-12-02T06:10:11.277Z,51.00
2017-12-02T06:11:14.230Z,54.00
2017-12-02T06:12:17.109Z,69.50
2017-12-02T06:13:20.121Z,53.00
2017-12-02T06:14:23.470Z,60.50
2017-12-02T06:15:26.302Z,58.00
2017-12-02T06:16:29.109Z,69.50
2017-12-02T06:17:31.962Z,58.50
2017-12-02T06:18:34.924Z,55.50
2017-12-02T06:19:37.845Z,51.50
2017-12-02T06:20:41.324Z,49.50
2017-12-02T06:21:44.200Z,50.50
2017-12-02T06:22:47.031Z,43.50
2017-12-02T06:23:49.996Z,47.00
2017-12-02T06:24:52.971Z,61.00
2017-12-02T06:25:55.911Z,56.50
2017-12-02T06:26:59.241Z,54.00
2017-12-02T06:28:02.221Z,47.00
2017-12-02T06:29:05.176Z,45.50
2017-12-02T06:30:08.118Z,63.00
2017-12-02T06:31:11.690Z,45.00
2017-12-02T06:32:14.562Z,66.00
2017-12-02T06:33:17.824Z,80.00
2017-12-02T06:34:20.806Z,69.00
2017-12-02T06:35:23.781Z,77.50
2017-12-02T06:36:26.637Z,71.00
2017-12-02T06:37:29.500Z,69.00
2017-12-02T06:38:32.412Z,61.00
2017-12-02T06:39:35.746Z,62.50
2017-12-02T06:40:38.611Z,58.00
2017-12-02T06:41:41.500Z,83.50
2017-12-02T06:42:44.457Z,49.50
2017-12-02T06:43:47.536Z,55.00
2017-12-02T06:44:50.529Z,64.00
2017-12-02T06:45:54.180Z,62.00
2017-12-02T06:46:57.261Z,59.00
2017-12-02T06:48:00.234Z,58.00
2017-12-02T06:49:03.371Z,75.00
2017-12-02T06:50:06.344Z,41.50
2017-12-02T06:51:09.345Z,56.50
2017-12-02T06:52:12.611Z,61.50
2017-12-02T06:53:15.646Z,64.50
2017-12-02T06:54:18.640Z,61.50
2017-12-02T06:55:21.614Z,54.00
2017-12-02T06:56:24.572Z,59.00
2017-12-02T06:57:27.497Z,44.50
2017-12-02T06:58:30.826Z,39.00
2017-12-02T06:59:33.742Z,46.00
2017-12-02T07:00:36.713Z,46.00
2017-12-02T07:01:39.847Z,46.50
2017-12-02T07:02:42.892Z,49.00
2017-12-02T07:03:46.393Z,46.50
2017-12-02T07:04:49.471Z,46.50
2017-12-02T07:05:52.617Z,52.50
2017-12-02T07:06:55.733Z,52.50
2017-12-02T07:07:58.888Z,48.50
2017-12-02T07:09:01.921Z,53.50
2017-12-02T07:10:05.521Z,42.00
2017-12-02T07:11:08.690Z,64.50
2017-12-02T07:12:11.812Z,44.00
2017-12-02T07:13:14.967Z,51.50
2017-12-02T07:14:18.135Z,67.50
2017-12-02T07:15:21.212Z,49.50
2017-12-02T07:16:24.911Z,73.50
2017-12-02T07:17:27.997Z,70.00
2017-12-02T07:18:31.102Z,63.50
2017-12-02T07:19:34.216Z,71.00
2017-12-02T07:20:37.318Z,65.50
2017-12-02T07:21:41.267Z,84.00
2017-12-02T07:22:44.691Z,73.00
2017-12-02T07:23:47.797Z,46.50
2017-12-02T07:24:50.843Z,41.50
2017-12-02T07:25:53.884Z,50.00
2017-12-02T07:26:56.944Z,42.00
2017-12-02T07:27:59.972Z,43.00
2017-12-02T07:29:03.401Z,52.50
2017-12-02T07:30:06.550Z,41.00
2017-12-02T07:31:09.684Z,47.00
2017-12-02T07:32:12.724Z,48.50
2017-12-02T07:33:15.642Z,53.50
2017-12-02T07:34:18.598Z,55.50
2017-12-02T07:35:21.879Z,62.50
2017-12-02T07:36:24.846Z,56.00
2017-12-02T07:37:27.844Z,60.00
2017-12-02T07:38:30.759Z,62.50
2017-12-02T07:39:33.813Z,55.50
2017-12-02T07:40:36.717Z,59.00
2017-12-02T07:41:39.740Z,50.00
2017-12-02T07:42:42.709Z,45.50
2017-12-02T07:43:45.725Z,56.50
2017-12-02T07:44:48.804Z,64.50
2017-12-02T07:45:51.795Z,73.50
2017-12-02T07:46:55.183Z,79.00
2017-12-02T07:47:58.114Z,89.00
2017-12-02T07:49:01.149Z,66.00
2017-12-02T07:50:04.131Z,87.00
2017-12-02T07:51:07.079Z,55.50
2017-12-02T07:52:10.014Z,60.50
2017-12-02T07:53:13.415Z,77.00
2017-12-02T07:54:16.334Z,100.00
2017-12-02T07:55:19.295Z,87.50
2017-12-02T07:56:22.289Z,71.50
2017-12-02T07:57:25.357Z,71.50
2017-12-02T07:58:28.354Z,71.00
2017-12-02T07:59:31.801Z,65.50
2017-12-02T08:00:34.768Z,48.50
2017-12-02T08:01:37.728Z,61.00
2017-12-02T08:02:40.749Z,47.50
2017-12-02T08:03:43.559Z,69.00
2017-12-02T08:04:46.443Z,63.00
2017-12-02T08:05:49.636Z,50.50
2017-12-02T08:06:52.500Z,65.50
2017-12-02T08:07:55.326Z,53.00
2017-12-02T08:08:58.170Z,57.00
2017-12-02T08:10:01.010Z,57.50
2017-12-02T08:11:03.962Z,69.50
2017-12-02T08:12:07.421Z,64.00
2017-12-02T08:13:10.382Z,66.00
2017-12-02T08:14:13.322Z,69.00
2017-12-02T08:15:16.283Z,61.00
2017-12-02T08:16:19.243Z,68.50
2017-12-02T08:17:22.243Z,68.50
2017-12-02T08:18:25.589Z,63.00
2017-12-02T08:19:28.547Z,71.50
2017-12-02T08:20:31.713Z,68.50
2017-12-02T08:21:34.783Z,64.50
2017-12-02T08:22:37.758Z,70.50
2017-12-02T08:23:40.723Z,70.00
2017-12-02T08:24:43.879Z,72.00
2017-12-02T08:25:46.713Z,63.50
2017-12-02T08:26:49.546Z,69.50
2017-12-02T08:27:52.426Z,62.00
2017-12-02T08:28:55.397Z,56.50
2017-12-02T08:29:58.311Z,67.50
2017-12-02T08:31:01.713Z,68.50
2017-12-02T08:32:04.652Z,72.50
2017-12-02T08:33:07.617Z,72.00
2017-12-02T08:34:10.594Z,69.50
2017-12-02T08:35:13.531Z,68.00
2017-12-02T08:36:16.445Z,64.50
2017-12-02T08:37:19.482Z,70.00
2017-12-02T08:38:22.410Z,73.50
2017-12-02T08:39:25.402Z,67.00
2017-12-02T08:40:28.463Z,64.50
2017-12-02T08:41:31.469Z,70.00
2017-12-02T08:42:34.410Z,67.50
2017-12-02T08:43:37.852Z,70.50
2017-12-02T08:44:40.822Z,70.50
2017-12-02T08:45:43.787Z,70.50
2017-12-02T08:46:46.717Z,60.00
2017-12-02T08:47:49.599Z,66.00
2017-12-02T08:48:52.550Z,64.50
2017-12-02T08:49:55.911Z,54.50
2017-12-02T08:50:58.878Z,70.00
2017-12-02T08:52:01.875Z,71.50
2017-12-02T08:53:04.871Z,70.00
2017-12-02T08:54:07.818Z,72.50
2017-12-02T08:55:11.553Z,71.50
2017-12-02T08:56:14.965Z,70.00
2017-12-02T08:57:17.976Z,66.00
2017-12-02T08:58:20.901Z,67.00
2017-12-02T08:59:23.930Z,69.50
2017-12-02T09:00:26.918Z,71.50
2017-12-02T09:01:29.958Z,67.50
2017-12-02T09:02:33.356Z,71.50
2017-12-02T09:03:36.481Z,71.00
2017-12-02T09:04:39.477Z,74.00
2017-12-02T09:05:42.469Z,67.00
2017-12-02T09:06:45.408Z,66.00
2017-12-02T09:07:48.418Z,70.00
2017-12-02T09:08:51.358Z,67.50
2017-12-02T09:09:54.425Z,72.50
2017-12-02T09:10:57.367Z,69.50
2017-12-02T09:12:00.331Z,75.00
2017-12-02T09:13:03.325Z,72.50
2017-12-02T09:14:06.681Z,76.50
2017-12-02T09:15:09.800Z,77.50
2017-12-02T09:16:12.807Z,68.00
2017-12-02T09:17:15.827Z,68.00
2017-12-02T09:18:18.789Z,73.50
2017-12-02T09:19:21.804Z,65.00
2017-12-02T09:20:26.210Z,71.00
2017-12-02T09:21:29.194Z,69.00
2017-12-02T09:22:32.172Z,73.50
2017-12-02T09:23:35.789Z,72.00
2017-12-02T09:24:38.828Z,75.00
2017-12-02T09:25:42.213Z,72.00
2017-12-02T09:26:45.545Z,66.50
2017-12-02T09:27:48.497Z,71.50
2017-12-02T09:28:51.425Z,73.00
2017-12-02T09:29:54.421Z,74.00
2017-12-02T09:30:57.604Z,65.50
2017-12-02T09:32:00.621Z,68.00
2017-12-02T09:33:03.927Z,72.50
2017-12-02T09:34:07.001Z,72.00
2017-12-02T09:35:11.067Z,62.50
2017-12-02T09:36:14.110Z,70.00
2017-12-02T09:37:17.165Z,66.00
2017-12-02T09:38:20.191Z,59.00
2017-12-02T09:39:23.475Z,69.00
2017-12-02T09:40:26.474Z,67.50
2017-12-02T09:41:29.488Z,65.50
2017-12-02T09:42:32.404Z,66.50
2017-12-02T09:43:35.433Z,64.50
2017-12-02T09:44:38.470Z,66.50
2017-12-02T09:45:41.696Z,66.00
2017-12-02T09:46:44.650Z,63.50
2017-12-02T09:47:47.577Z,66.50
2017-12-02T09:48:50.469Z,58.50
2017-12-02T09:49:53.466Z,64.00
2017-12-02T09:50:56.445Z,55.00
2017-12-02T09:51:59.747Z,60.50
2017-12-02T09:53:02.750Z,60.50
2017-12-02T09:54:05.748Z,64.50
2017-12-02T09:55:08.726Z,62.50
2017-12-02T09:56:11.778Z,63.00
2017-12-02T09:57:14.716Z,66.00
2017-12-02T09:58:18.012Z,65.00
2017-12-02T09:59:20.969Z,68.00
2017-12-02T10:00:24.005Z,69.00
2017-12-02T10:01:27.032Z,66.00
2017-12-02T10:02:29.996Z,64.00
2017-12-02T10:03:32.957Z,63.50
2017-12-02T10:04:36.210Z,66.00
2017-12-02T10:05:39.184Z,62.50
2017-12-02T10:06:42.283Z,62.50
2017-12-02T10:07:45.282Z,61.50
2017-12-02T10:08:49.115Z,64.00
2017-12-02T10:09:53.737Z,67.00
2017-12-02T10:10:57.254Z,83.00
2017-12-02T10:12:00.298Z,59.00
2017-12-02T10:13:03.303Z,69.00
2017-12-02T10:14:06.451Z,65.50
2017-12-02T10:15:09.519Z,66.50
2017-12-02T10:16:12.594Z,69.50
2017-12-02T10:17:15.959Z,65.50
2017-12-02T10:18:18.955Z,74.50
2017-12-02T10:19:22.031Z,64.00
2017-12-02T10:20:25.072Z,65.50
2017-12-02T10:21:28.249Z,65.50
2017-12-02T10:22:31.461Z,72.00
2017-12-02T10:23:34.781Z,66.00
2017-12-02T10:24:37.826Z,74.00
2017-12-02T10:25:41.638Z,66.50
2017-12-02T10:26:44.645Z,69.50
2017-12-02T10:27:47.564Z,66.00
2017-12-02T10:28:50.898Z,64.00
2017-12-02T10:29:54.224Z,70.00
2017-12-02T10:30:57.248Z,68.50
2017-12-02T10:32:00.235Z,63.50
2017-12-02T10:33:03.383Z,61.50
2017-12-02T10:34:06.318Z,63.50
2017-12-02T10:35:09.407Z,67.00
2017-12-02T10:36:12.732Z,64.50
2017-12-02T10:37:15.689Z,87.00
2017-12-02T10:38:18.606Z,67.50
2017-12-02T10:39:21.532Z,71.50
2017-12-02T10:40:24.530Z,64.00
2017-12-02T10:41:27.820Z,66.00
2017-12-02T10:42:31.655Z,65.00
2017-12-02T10:43:34.709Z,64.00
2017-12-02T10:44:38.130Z,67.50
2017-12-02T10:45:41.245Z,66.50
2017-12-02T10:46:44.319Z,67.00
2017-12-02T10:47:47.335Z,60.00
2017-12-02T10:48:50.658Z,64.50
2017-12-02T10:49:53.593Z,70.00
2017-12-02T10:50:56.728Z,70.00
2017-12-02T10:51:59.749Z,66.00
2017-12-02T10:53:07.871Z,137.50
2017-12-02T10:54:13.813Z,134.00
2017-12-02T10:55:17.242Z,66.50
2017-12-02T10:56:20.235Z,77.00
2017-12-02T10:57:23.234Z,67.00
2017-12-02T10:58:26.296Z,63.00
2017-12-02T10:59:29.290Z,62.50
2017-12-02T11:00:40.126Z,70.50
2017-12-02T11:01:43.031Z,66.50
2017-12-02T11:02:45.913Z,66.00
2017-12-02T11:03:48.918Z,71.50
2017-12-02T11:04:51.894Z,66.50
2017-12-02T11:05:54.733Z,64.00
2017-12-02T11:06:58.032Z,66.00
2017-12-02T11:08:01.718Z,76.00
2017-12-02T11:09:04.675Z,65.50
2017-12-02T11:10:07.714Z,70.00
2017-12-02T11:11:10.722Z,66.00
2017-12-02T11:12:13.830Z,66.00
2017-12-02T11:13:17.387Z,69.50
2017-12-02T11:14:20.610Z,68.00
2017-12-02T11:15:23.550Z,70.00
2017-12-02T11:16:27.061Z,64.50
2017-12-02T11:17:30.019Z,67.00
2017-12-02T11:18:32.974Z,85.00
2017-12-02T11:19:36.561Z,72.00
2017-12-02T11:20:39.543Z,67.00
2017-12-02T11:21:43.077Z,65.00
2017-12-02T11:22:46.082Z,65.00
2017-12-02T11:23:49.039Z,72.50
2017-12-02T11:24:52.452Z,66.50
2017-12-02T11:25:55.414Z,71.50
2017-12-02T11:26:58.341Z,71.00
2017-12-02T11:28:01.484Z,70.00
2017-12-02T11:29:04.367Z,71.00
2017-12-02T11:30:07.367Z,69.00
2017-12-02T11:31:10.312Z,70.50
2017-12-02T11:32:13.255Z,70.00
2017-12-02T11:33:19.001Z,66.50
2017-12-02T11:34:22.022Z,71.50
2017-12-02T11:35:25.081Z,71.50
2017-12-02T11:36:28.489Z,68.50
2017-12-02T11:37:31.477Z,74.00
2017-12-02T11:38:34.452Z,66.00
2017-12-02T11:39:37.569Z,68.50
2017-12-02T11:40:40.955Z,71.50
2017-12-02T11:41:43.995Z,64.00
2017-12-02T11:42:47.189Z,79.00
2017-12-02T11:43:50.221Z,74.00
2017-12-02T11:44:54.064Z,79.00
2017-12-02T11:45:57.103Z,75.50
2017-12-02T11:47:00.153Z,72.00
2017-12-02T11:48:03.760Z,68.50
2017-12-02T11:49:07.293Z,70.00
2017-12-02T11:50:10.661Z,69.00
2017-12-02T11:51:13.662Z,71.00
2017-12-02T11:52:16.872Z,74.00
2017-12-02T11:53:19.843Z,77.00
2017-12-02T11:54:22.839Z,73.00
2017-12-02T11:55:25.838Z,66.50
2017-12-02T11:56:29.056Z,70.00
2017-12-02T11:57:32.044Z,61.50
2017-12-02T11:58:35.167Z,72.00
2017-12-02T11:59:38.614Z,67.00
2017-12-02T12:00:41.684Z,66.00
2017-12-02T12:01:44.690Z,65.00
2017-12-02T12:02:47.978Z,60.00
2017-12-02T12:03:51.177Z,57.50
2017-12-02T12:04:55.228Z,65.50
2017-12-02T12:05:58.758Z,67.50
2017-12-02T12:07:01.889Z,57.50
2017-12-02T12:08:05.021Z,56.00
2017-12-02T12:09:08.090Z,61.50
2017-12-02T12:10:11.508Z,58.00
2017-12-02T12:11:14.833Z,65.50
2017-12-02T12:12:18.145Z,63.00
2017-12-02T12:13:21.666Z,61.50
2017-12-02T12:14:24.729Z,64.00
2017-12-02T12:15:28.344Z,49.50
2017-12-02T12:16:31.673Z,65.50
2017-12-02T12:17:35.127Z,59.75
2017-12-02T12:18:38.382Z,55.00
2017-12-02T12:19:41.675Z,52.25
2017-12-02T12:20:44.734Z,62.50
2017-12-02T12:21:47.771Z,63.50
2017-12-02T12:22:50.782Z,61.50
2017-12-02T12:23:54.195Z,58.50
2017-12-02T12:24:57.243Z,66.00
2017-12-02T12:26:00.275Z,56.50
2017-12-02T12:27:03.402Z,56.50
2017-12-02T12:28:06.845Z,74.50
2017-12-02T12:29:10.012Z,70.50
2017-12-02T12:30:13.973Z,70.00
2017-12-02T12:31:17.819Z,69.00
2017-12-02T12:32:21.179Z,68.50
2017-12-02T12:33:24.121Z,63.50
2017-12-02T12:34:27.114Z,66.50
2017-12-02T12:35:30.093Z,49.50
2017-12-02T12:36:33.384Z,60.00
2017-12-02T12:37:36.743Z,54.50
2017-12-02T12:38:39.898Z,47.50
2017-12-02T12:39:44.185Z,55.00
2017-12-02T12:40:47.396Z,56.50
2017-12-02T12:41:50.915Z,63.50
2017-12-02T12:42:54.205Z,60.50
2017-12-02T12:43:57.219Z,58.00
2017-12-02T12:45:00.264Z,62.00
2017-12-02T12:46:03.338Z,64.50
2017-12-02T12:47:06.375Z,58.00
2017-12-02T12:48:10.499Z,63.50
2017-12-02T12:49:13.841Z,60.00
2017-12-02T12:50:17.001Z,49.00
2017-12-02T12:51:19.964Z,61.00
2017-12-02T12:52:22.988Z,60.00
2017-12-02T12:53:26.154Z,52.00
2017-12-02T12:54:29.910Z,55.00
2017-12-02T12:55:33.397Z,62.50
2017-12-02T12:56:36.554Z,64.00
2017-12-02T12:57:39.531Z,64.00
2017-12-02T12:58:42.507Z,62.00
2017-12-02T12:59:45.719Z,59.00
2017-12-02T13:00:49.457Z,55.50
2017-12-02T13:01:52.655Z,60.00
2017-12-02T13:02:55.583Z,63.00
2017-12-02T13:03:58.504Z,67.50
2017-12-02T13:05:02.828Z,65.50
2017-12-02T13:06:05.679Z,57.50
2017-12-02T13:07:09.134Z,55.50
2017-12-02T13:08:12.096Z,61.00
2017-12-02T13:09:15.497Z,63.50
2017-12-02T13:10:19.175Z,64.00
2017-12-02T13:11:22.224Z,67.00
2017-12-02T13:12:25.339Z,54.50
2017-12-02T13:13:29.440Z,63.00
2017-12-02T13:14:32.843Z,58.00
2017-12-02T13:15:36.516Z,69.50
2017-12-02T13:16:39.716Z,64.00
2017-12-02T13:17:42.771Z,52.50
2017-12-02T13:18:45.776Z,60.00
2017-12-02T13:19:49.986Z,58.00
2017-12-02T13:20:53.067Z,66.00
2017-12-02T13:21:56.246Z,65.00
2017-12-02T13:22:59.315Z,65.00
2017-12-02T13:24:02.327Z,59.00
2017-12-02T13:25:05.387Z,65.00
2017-12-02T13:26:09.016Z,61.00
2017-12-02T13:27:12.610Z,63.50
2017-12-02T13:28:15.604Z,66.00
2017-12-02T13:29:18.694Z,61.50
2017-12-02T13:30:21.913Z,64.50
2017-12-02T13:31:25.116Z,59.50
2017-12-02T13:32:28.711Z,57.00